Time;durP1;ratioP1;P1;durP2;ratioP2;P2;SDS_P1;SDS_P2;PMS_P1;PMS_P2;Temp;Humidity;BMP_temperature;BMP_pressure;BME280_temperature;BME280_humidity;BME280_pressure;Samples;Min_cycle;Max_cycle;Signal;HPM_P1;HPM_P2
2022/06/06 00:00:42;;;;;;;3.83;3.33;;;;;;;16.64;71.52;99225.72;5222839;28;20064;-71
2022/06/06 00:03:32;;;;;;;6.75;3.33;;;;;;;16.41;70.95;99211.47;5222847;28;20055;-71
2022/06/06 00:06:22;;;;;;;5.90;2.97;;;;;;;16.40;71.42;99210.66;5209377;28;20063;-71
2022/06/06 00:09:15;;;;;;;11.68;3.17;;;;;;;16.48;71.09;99222.31;5207908;28;20060;-69
2022/06/06 00:12:06;;;;;;;5.28;3.63;;;;;;;16.50;70.90;99217.63;5222840;28;20086;-71
2022/06/06 00:14:56;;;;;;;4.50;3.67;;;;;;;16.49;70.90;99215.94;5222555;28;20053;-69
2022/06/06 00:17:46;;;;;;;8.30;3.83;;;;;;;16.34;71.23;99218.53;5222867;28;20110;-71
2022/06/06 00:20:36;;;;;;;5.78;3.88;;;;;;;16.45;71.51;99224.31;5222719;28;20053;-71
2022/06/06 00:23:27;;;;;;;5.60;3.30;;;;;;;16.35;71.15;99223.72;5222798;28;20052;-71
2022/06/06 00:26:17;;;;;;;5.03;3.92;;;;;;;16.42;71.73;99219.34;5222593;28;20067;-71
2022/06/06 00:29:09;;;;;;;9.32;4.40;;;;;;;16.55;70.98;99210.72;5214495;28;20566;-71
2022/06/06 00:35:08;;;;;;;6.72;3.60;;;;;;;16.49;71.26;99219.47;5222905;28;20052;-71
2022/06/06 00:38:00;;;;;;;6.05;3.70;;;;;;;16.37;70.43;99218.19;5207074;28;20111;-70
2022/06/06 00:40:50;;;;;;;7.80;3.70;;;;;;;16.09;70.84;99220.50;5222483;28;20053;-70
2022/06/06 00:43:41;;;;;;;5.22;3.78;;;;;;;15.89;71.22;99199.53;5222207;28;20145;-71
2022/06/06 00:46:34;;;;;;;7.63;3.83;;;;;;;16.00;71.14;99200.16;5216670;28;20052;-71
2022/06/06 00:49:34;;;;;;;6.97;3.80;;;;;;;15.94;71.45;99186.47;5222589;28;20522;-70
2022/06/06 00:52:38;;;;;;;15.25;3.58;;;;;;;16.00;71.50;99203.66;5214071;28;20075;-69
2022/06/06 00:55:34;;;;;;;9.00;4.23;;;;;;;15.76;71.74;99183.19;5222169;28;20041;-71
2022/06/06 00:58:29;;;;;;;7.10;4.03;;;;;;;16.03;71.61;99197.97;5226599;28;20287;-71
2022/06/06 01:01:21;;;;;;;8.63;4.15;;;;;;;15.94;71.70;99190.97;5226142;28;20071;-71
2022/06/06 01:04:13;;;;;;;11.50;3.88;;;;;;;15.91;71.39;99197.50;5225865;28;20056;-69
2022/06/06 01:07:05;;;;;;;7.40;3.85;;;;;;;15.70;71.57;99173.19;5226357;28;20172;-71
2022/06/06 01:09:55;;;;;;;7.20;4.07;;;;;;;15.69;71.58;99190.22;5226620;28;20052;-69
2022/06/06 01:12:49;;;;;;;5.28;3.92;;;;;;;15.64;72.65;99181.88;5224799;28;20064;-71
2022/06/06 01:15:55;;;;;;;9.75;4.63;;;;;;;15.80;72.06;99189.03;5213685;28;20048;-71
2022/06/06 01:19:01;;;;;;;7.38;4.60;;;;;;;15.87;72.23;99185.47;5226225;28;20060;-71
2022/06/06 01:22:06;;;;;;;9.77;4.28;;;;;;;15.89;72.14;99186.16;5214785;28;20057;-70
2022/06/06 01:25:17;;;;;;;9.13;4.63;;;;;;;15.87;71.49;99187.34;5225681;28;20053;-70
2022/06/06 01:28:33;;;;;;;5.65;4.65;;;;;;;15.88;72.05;99189.00;5226090;28;20056;-71
2022/06/06 01:31:33;;;;;;;6.28;4.78;;;;;;;16.16;71.05;99194.72;5211613;28;20083;-70
2022/06/06 01:34:31;;;;;;;7.00;4.53;;;;;;;15.78;71.82;99196.38;5225891;28;20059;-71
2022/06/06 01:37:31;;;;;;;11.25;5.15;;;;;;;16.01;71.09;99191.94;5226191;28;20134;-70
2022/06/06 01:40:21;;;;;;;5.95;4.68;;;;;;;15.71;71.79;99174.84;5226092;28;20522;-70
2022/06/06 01:43:20;;;;;;;9.45;4.97;;;;;;;15.61;73.19;99177.69;5225554;28;20534;-71
2022/06/06 01:46:17;;;;;;;7.57;5.25;;;;;;;15.66;72.52;99163.78;5210460;28;20068;-70
2022/06/06 01:49:11;;;;;;;9.60;5.32;;;;;;;15.74;72.31;99177.19;5211689;28;20049;-70
2022/06/06 01:52:13;;;;;;;7.28;5.32;;;;;;;15.82;72.05;99182.47;5225643;28;20061;-70
2022/06/06 01:55:04;;;;;;;14.23;4.43;;;;;;;15.73;71.05;99172.84;5225757;28;20515;-70
2022/06/06 01:57:57;;;;;;;7.95;4.57;;;;;;;15.43;72.13;99161.88;5225780;28;20110;-70
2022/06/06 02:00:48;;;;;;;11.00;4.90;;;;;;;15.38;72.28;99163.38;5224982;28;20064;-70
2022/06/06 02:03:38;;;;;;;8.70;5.30;;;;;;;15.46;72.63;99171.38;5222893;28;20190;-70
2022/06/06 02:06:29;;;;;;;7.15;5.00;;;;;;;15.58;71.25;99166.50;5225159;28;20051;-70
2022/06/06 02:09:19;;;;;;;6.72;4.70;;;;;;;15.37;71.93;99162.56;5224944;28;20049;-70
2022/06/06 02:12:09;;;;;;;6.32;4.80;;;;;;;15.41;72.59;99171.06;5225038;28;20142;-70
2022/06/06 02:15:00;;;;;;;7.93;5.65;;;;;;;15.39;72.02;99146.34;5224408;28;20041;-71
2022/06/06 02:17:51;;;;;;;7.68;5.40;;;;;;;15.33;71.95;99134.53;5225277;28;20056;-70
2022/06/06 02:20:41;;;;;;;6.78;5.32;;;;;;;15.45;71.60;99151.84;5225013;28;20431;-70
2022/06/06 02:23:32;;;;;;;7.65;5.00;;;;;;;15.51;71.38;99169.84;5209692;28;20056;-70
2022/06/06 02:26:22;;;;;;;9.63;5.10;;;;;;;15.32;72.51;99172.91;5225142;28;20108;-70
2022/06/06 02:29:12;;;;;;;7.57;5.35;;;;;;;15.23;72.50;99158.75;5224597;28;20057;-70
2022/06/06 02:32:03;;;;;;;7.45;4.95;;;;;;;15.16;72.55;99160.41;5224859;28;20170;-70
2022/06/06 02:34:53;;;;;;;6.25;5.05;;;;;;;15.22;72.74;99154.38;5209240;28;20141;-71
2022/06/06 02:37:46;;;;;;;6.90;4.75;;;;;;;15.18;72.14;99149.56;5210538;28;20051;-70
2022/06/06 02:40:36;;;;;;;6.80;5.00;;;;;;;15.15;72.52;99152.56;5224923;28;20056;-71
2022/06/06 02:43:27;;;;;;;7.18;4.88;;;;;;;15.15;72.24;99152.56;5208457;28;20052;-70
2022/06/06 02:46:18;;;;;;;8.57;4.97;;;;;;;15.17;72.88;99150.56;5224694;28;20206;-70
2022/06/06 02:49:08;;;;;;;13.30;4.82;;;;;;;15.25;72.35;99158.56;5209407;28;20063;-70
2022/06/06 02:52:03;;;;;;;7.70;5.00;;;;;;;15.22;72.21;99169.59;5223319;28;20049;-70
2022/06/06 02:54:53;;;;;;;;;;;;;;;15.08;72.07;99173.78;5224541;28;20095;-70
2022/06/06 02:57:46;;;;;;;9.70;5.20;;;;;;;15.13;71.95;99162.56;5224143;28;20405;-70
2022/06/06 03:00:41;;;;;;;9.93;4.70;;;;;;;15.17;72.20;99167.44;5224187;28;20569;-71
2022/06/06 03:03:32;;;;;;;8.27;5.05;;;;;;;15.17;72.48;99170.09;5223415;28;20087;-70
2022/06/06 03:06:41;;;;;;;6.15;5.55;;;;;;;15.12;72.30;99179.63;5224043;28;20183;-71
2022/06/06 03:10:09;;;;;;;5.72;5.10;;;;;;;15.05;72.65;99166.09;5224152;28;20131;-70
2022/06/06 03:13:25;;;;;;;10.80;5.30;;;;;;;14.90;72.83;99154.41;5224147;28;20135;-70
2022/06/06 03:23:30;;;;;;;7.57;4.82;;;;;;;14.82;72.71;99189.13;5224206;28;20049;-71
2022/06/06 03:26:29;;;;;;;5.85;4.55;;;;;;;14.79;72.65;99201.81;5208453;28;20114;-70
2022/06/06 03:29:22;;;;;;;10.93;5.97;;;;;;;14.76;74.39;99199.47;5223621;28;20158;-71
2022/06/06 03:32:12;;;;;;;13.25;5.40;;;;;;;14.83;73.73;99202.31;5223181;28;20083;-71
2022/06/06 03:35:02;;;;;;;8.23;4.85;;;;;;;14.92;73.61;99209.31;5208416;28;20468;-70
2022/06/06 03:38:07;;;;;;;10.30;5.85;;;;;;;15.07;73.41;99208.69;5208712;28;20458;-70
2022/06/06 03:41:14;;;;;;;21.70;6.57;;;;;;;15.09;73.31;99223.50;5223171;28;20060;-70
2022/06/06 03:44:13;;;;;;;14.27;7.97;;;;;;;15.65;72.53;99219.09;5222827;28;20427;-70
2022/06/06 03:47:20;;;;;;;12.70;8.00;;;;;;;15.58;73.83;99217.28;5207693;28;20098;-70
2022/06/06 03:50:25;;;;;;;14.57;8.48;;;;;;;15.84;73.08;99222.44;5223201;28;20139;-70
2022/06/06 03:53:31;;;;;;;12.18;8.50;;;;;;;16.00;73.56;99219.72;5208449;28;20130;-70
2022/06/06 03:56:49;;;;;;;13.98;8.98;;;;;;;15.95;74.51;99225.56;5222843;28;20076;-70
2022/06/06 03:59:40;;;;;;;14.98;9.32;;;;;;;16.29;72.94;99231.59;5223726;28;20491;-70
2022/06/06 04:02:36;;;;;;;14.45;9.20;;;;;;;16.54;72.11;99226.97;5221740;28;20045;-70
2022/06/06 04:05:29;;;;;;;15.65;8.55;;;;;;;16.33;72.02;99209.69;5222851;28;20052;-71
2022/06/06 04:08:19;;;;;;;15.73;8.33;;;;;;;16.62;71.67;99229.56;5222912;28;20060;-70
2022/06/06 04:11:24;;;;;;;12.27;7.20;;;;;;;16.43;72.03;99234.38;5207701;28;20182;-70
2022/06/06 04:14:37;;;;;;;10.65;5.47;;;;;;;15.97;72.29;99223.56;5207416;28;20131;-71
2022/06/06 04:17:50;;;;;;;8.35;5.85;;;;;;;15.94;72.04;99233.75;5207514;28;20099;-71
2022/06/06 04:20:52;;;;;;;8.73;5.20;;;;;;;15.82;72.83;99235.13;5222555;28;20049;-70
2022/06/06 04:24:04;;;;;;;11.38;5.18;;;;;;;15.75;71.63;99234.97;5222470;28;20102;-71
2022/06/06 04:27:24;;;;;;;6.63;4.72;;;;;;;15.60;72.26;99234.00;5207313;28;20495;-70
2022/06/06 04:30:36;;;;;;;5.65;4.22;;;;;;;15.51;72.96;99217.13;5206991;28;20064;-70
2022/06/06 04:33:32;;;;;;;9.70;4.65;;;;;;;15.61;72.25;99231.13;5197638;28;20535;-70
2022/06/06 04:36:57;;;;;;;8.82;4.45;;;;;;;15.59;72.62;99235.81;5207428;28;20056;-70
2022/06/06 04:40:06;;;;;;;11.32;4.32;;;;;;;15.59;72.12;99218.94;5207631;28;20060;-71
2022/06/06 04:43:06;;;;;;;6.45;4.57;;;;;;;15.97;71.49;99226.22;5220394;28;20052;-70
2022/06/06 04:46:15;;;;;;;9.75;4.88;;;;;;;15.91;72.40;99234.94;5207324;28;20053;-70
2022/06/06 04:49:07;;;;;;;7.00;4.80;;;;;;;15.99;72.60;99226.03;5195109;28;20147;-70
2022/06/06 04:51:59;;;;;;;8.75;4.78;;;;;;;16.06;72.22;99229.72;5221952;28;20067;-70
2022/06/06 04:54:51;;;;;;;6.18;5.20;;;;;;;15.96;72.58;99221.06;5210351;28;20425;-71
2022/06/06 04:57:45;;;;;;;5.05;4.50;;;;;;;16.06;72.60;99239.56;5206839;28;20458;-70
2022/06/06 05:00:37;;;;;;;10.65;5.38;;;;;;;16.09;71.58;99237.41;5222220;28;20499;-71
2022/06/06 05:03:28;;;;;;;8.48;5.45;;;;;;;16.38;72.05;99241.25;5222111;28;20126;-71
2022/06/06 05:06:36;;;;;;;9.48;6.05;;;;;;;16.35;73.03;99239.75;5222396;28;20049;-71
2022/06/06 05:09:56;;;;;;;13.82;6.15;;;;;;;16.54;72.22;99241.19;5216668;28;20049;-71
2022/06/06 05:12:59;;;;;;;7.30;5.53;;;;;;;16.60;72.41;99232.44;5216171;28;20549;-70
2022/06/06 05:16:23;;;;;;;10.55;6.20;;;;;;;16.72;72.33;99227.53;5222538;28;20507;-70
2022/06/06 05:19:45;;;;;;;9.45;5.65;;;;;;;16.95;71.79;99240.94;5207404;28;20103;-71
2022/06/06 05:23:02;;;;;;;6.75;5.85;;;;;;;17.19;71.09;99242.59;5221600;28;20534;-71
2022/06/06 05:25:58;;;;;;;8.90;6.47;;;;;;;17.54;71.58;99242.94;5221972;28;20122;-70
2022/06/06 05:29:12;;;;;;;15.35;8.50;;;;;;;17.96;71.29;99247.75;5207193;28;20087;-70
2022/06/06 05:32:09;;;;;;;11.65;7.32;;;;;;;18.05;70.06;99253.84;5205886;28;20099;-70
2022/06/06 05:34:59;;;;;;;9.82;6.90;;;;;;;18.31;68.80;99251.53;5222040;28;20079;-70
2022/06/06 05:38:01;;;;;;;8.70;7.00;;;;;;;18.42;69.17;99257.44;5221335;28;20051;-71
2022/06/06 05:41:30;;;;;;;9.55;6.75;;;;;;;18.80;67.69;99251.88;5221662;28;20041;-70
2022/06/06 05:44:51;;;;;;;8.52;6.78;;;;;;;18.76;67.88;99260.31;5187274;28;20064;-71
2022/06/06 05:48:06;;;;;;;10.13;7.13;;;;;;;18.95;66.92;99258.03;5224710;28;20458;-70
2022/06/06 05:51:17;;;;;;;11.02;7.10;;;;;;;18.90;67.85;99255.09;5176501;28;20317;-70
2022/06/06 05:54:28;;;;;;;11.00;6.20;;;;;;;18.99;67.92;99253.94;5208568;28;20084;-71
2022/06/06 05:57:34;;;;;;;7.13;6.38;;;;;;;19.33;66.79;99244.31;5201475;28;20048;-70
2022/06/06 06:00:49;;;;;;;11.23;6.00;;;;;;;19.37;66.90;99257.19;5219001;28;20053;-71
2022/06/06 06:03:49;;;;;;;20.27;11.20;;;;;;;19.57;66.47;99253.81;5218292;28;20052;-71
2022/06/06 06:06:54;;;;;;;7.88;5.30;;;;;;;20.07;64.13;99260.81;5220489;28;20045;-71
2022/06/06 06:10:06;;;;;;;7.97;6.30;;;;;;;19.92;65.37;99266.31;5220799;28;20536;-70
2022/06/06 06:13:22;;;;;;;14.18;6.03;;;;;;;20.21;64.74;99269.78;5221119;28;20528;-71
2022/06/06 06:16:15;;;;;;;5.70;4.93;;;;;;;20.33;63.96;99264.66;5218062;28;20053;-71
2022/06/06 06:19:16;;;;;;;15.43;6.25;;;;;;;20.25;65.54;99271.06;5203390;28;20411;-71
2022/06/06 06:22:08;;;;;;;6.50;4.93;;;;;;;20.46;64.80;99278.19;5219843;28;20048;-71
2022/06/06 06:25:01;;;;;;;10.32;6.00;;;;;;;20.46;64.10;99275.50;5221133;28;20072;-71
2022/06/06 06:28:02;;;;;;;7.78;5.15;;;;;;;20.47;63.37;99277.16;5202394;28;20044;-71
2022/06/06 06:31:20;;;;;;;9.82;5.07;;;;;;;20.13;65.11;99272.63;5203606;28;20050;-71
2022/06/06 06:34:17;;;;;;;6.90;5.03;;;;;;;20.39;65.90;99275.47;5214801;28;20475;-71
2022/06/06 06:37:29;;;;;;;12.73;5.07;;;;;;;20.90;64.48;99285.03;5218462;28;20045;-71
2022/06/06 06:40:46;;;;;;;8.43;4.95;;;;;;;20.91;64.56;99285.84;5222086;28;20063;-71
2022/06/06 06:43:53;;;;;;;8.60;4.65;;;;;;;21.37;62.74;99302.13;5201942;28;20133;-71
2022/06/06 06:46:48;;;;;;;12.98;6.22;;;;;;;21.57;61.80;99305.66;5222938;28;20064;-70
2022/06/06 06:49:47;;;;;;;8.88;4.80;;;;;;;21.81;60.42;99300.66;5223639;28;20578;-71
2022/06/06 06:53:04;;;;;;;8.18;4.75;;;;;;;21.90;61.33;99301.28;5208023;28;20056;-71
2022/06/06 06:56:30;;;;;;;7.38;4.80;;;;;;;22.21;60.06;99303.34;5219536;28;20076;-72
2022/06/06 06:59:30;;;;;;;9.73;4.90;;;;;;;22.71;57.86;99308.97;5221933;28;20049;-71
2022/06/06 07:10:02;;;;;;;7.15;4.25;;;;;;;23.07;58.40;99310.28;5209232;28;20504;-70
2022/06/06 07:13:01;;;;;;;8.63;4.00;;;;;;;23.23;55.67;99306.25;5193197;28;20067;-70
2022/06/06 07:15:57;;;;;;;5.50;4.22;;;;;;;23.56;56.67;99301.41;5209369;28;20052;-70
2022/06/06 07:18:59;;;;;;;6.40;3.85;;;;;;;23.81;55.66;99306.88;5223771;28;20232;-70
2022/06/06 07:21:52;;;;;;;8.07;4.22;;;;;;;24.32;52.60;99294.88;5216156;28;20052;-71
2022/06/06 07:24:43;;;;;;;4.80;3.83;;;;;;;23.79;54.95;99295.41;5222783;28;20154;-69
2022/06/06 07:27:33;;;;;;;9.48;4.45;;;;;;;23.97;53.65;99294.59;5203456;28;20063;-71
2022/06/06 07:30:28;;;;;;;5.25;4.03;;;;;;;24.21;54.58;99292.94;5225637;28;20091;-71
2022/06/06 07:33:31;;;;;;;8.18;4.35;;;;;;;24.21;55.68;99298.34;5221031;28;20596;-71
2022/06/06 07:36:24;;;;;;;5.72;3.83;;;;;;;24.25;55.13;99296.00;5224022;28;20083;-73
2022/06/06 07:39:20;;;;;;;7.57;3.93;;;;;;;24.46;52.35;99289.34;5208160;28;20060;-72
2022/06/06 07:42:48;;;;;;;7.22;4.20;;;;;;;23.56;53.34;99281.63;5219271;28;20364;-71
2022/06/06 07:45:46;;;;;;;6.97;4.40;;;;;;;23.31;54.74;99279.75;5214762;28;20098;-70
2022/06/06 07:48:44;;;;;;;6.45;4.25;;;;;;;23.38;56.13;99280.53;5223253;28;20068;-69
2022/06/06 07:51:47;;;;;;;10.30;4.57;;;;;;;23.28;56.19;99279.34;5222795;28;20061;-70
2022/06/06 07:54:56;;;;;;;7.63;4.10;;;;;;;23.31;56.58;99285.19;5222468;28;20055;-70
2022/06/06 07:58:15;;;;;;;7.15;4.60;;;;;;;23.73;57.21;99280.06;5221027;28;20548;-69
2022/06/06 08:01:17;;;;;;;10.45;4.63;;;;;;;23.85;55.10;99278.28;5220474;28;20133;-71
2022/06/06 08:04:25;;;;;;;7.78;4.53;;;;;;;23.74;55.43;99265.50;5221165;28;20052;-72
2022/06/06 08:07:32;;;;;;;8.23;4.20;;;;;;;23.89;54.15;99271.38;5221239;28;20084;-71
2022/06/06 08:10:45;;;;;;;5.32;4.25;;;;;;;24.31;55.79;99265.31;5194241;28;20052;-71
2022/06/06 08:14:25;;;;;;;6.93;4.30;;;;;;;23.83;54.79;99258.72;5205853;28;20137;-69
2022/06/06 08:17:27;;;;;;;7.82;4.20;;;;;;;25.26;54.71;99270.91;5213100;28;20064;-71
2022/06/06 08:20:27;;;;;;;8.13;4.07;;;;;;;25.30;50.97;99252.31;5197416;28;20136;-71
2022/06/06 08:23:20;;;;;;;6.65;4.00;;;;;;;24.53;52.83;99254.84;5209065;28;20430;-70
2022/06/06 08:26:11;;;;;;;11.45;4.32;;;;;;;24.18;52.77;99260.84;5213019;28;20836;-71
2022/06/06 08:29:07;;;;;;;7.10;4.35;;;;;;;24.56;53.18;99262.50;5179995;28;20059;-71
2022/06/06 08:31:58;;;;;;;8.38;4.10;;;;;;;24.34;53.71;99260.25;5200372;28;20084;-72
2022/06/06 08:34:48;;;;;;;15.50;4.55;;;;;;;24.35;54.11;99245.66;5198052;28;20045;-70
2022/06/06 08:37:59;;;;;;;8.30;4.00;;;;;;;24.44;53.15;99256.22;5213378;28;20081;-74
2022/06/06 08:41:06;;;;;;;7.72;4.35;;;;;;;24.39;52.86;99240.59;5203099;28;20555;-75
2022/06/06 08:43:56;;;;;;;4.55;4.15;;;;;;;24.21;53.88;99249.56;5214076;28;20056;-74
2022/06/06 08:47:08;;;;;;;5.47;4.50;;;;;;;24.83;55.45;99247.56;5217326;28;20116;-71
2022/06/06 08:53:55;;;;;;;7.63;4.63;;;;;;;25.24;50.37;99243.22;5220676;28;20519;-72
2022/06/06 08:57:04;;;;;;;8.57;4.53;;;;;;;26.15;49.87;99240.16;5222433;28;20049;-73
2022/06/06 09:00:13;;;;;;;8.75;3.13;;;;;;;25.41;47.67;99245.25;5192111;28;20155;-73
2022/06/06 09:03:27;;;;;;;5.70;3.33;;;;;;;24.97;49.79;99242.75;5219204;28;20061;-72
2022/06/06 09:06:44;;;;;;;4.78;3.22;;;;;;;24.87;52.56;99233.50;5217306;28;20076;-72
2022/06/06 09:09:57;;;;;;;6.57;3.38;;;;;;;24.91;50.82;99226.59;5218593;28;20056;-74
2022/06/06 09:13:25;;;;;;;9.18;3.08;;;;;;;25.70;46.87;99238.06;5204821;28;20587;-72
2022/06/06 09:16:44;;;;;;;5.53;3.65;;;;;;;25.40;50.08;99232.75;5219586;28;20048;-72
2022/06/06 09:19:59;;;;;;;4.22;3.70;;;;;;;25.36;48.72;99220.69;5223086;28;20114;-72
2022/06/06 09:23:35;;;;;;;4.80;2.80;;;;;;;24.84;48.82;99222.09;5223177;28;20049;-71
2022/06/06 09:26:39;;;;;;;5.38;2.80;;;;;;;26.42;47.57;99222.25;5209056;28;20059;-71
2022/06/06 09:29:51;;;;;;;4.13;2.40;;;;;;;27.69;45.90;99222.06;5224555;28;20053;-71
2022/06/06 09:32:56;;;;;;;5.07;2.60;;;;;;;27.90;42.33;99210.38;5218695;28;20444;-71
2022/06/06 09:36:23;;;;;;;23.73;3.65;;;;;;;27.64;44.94;99217.34;5210648;28;20413;-72
2022/06/06 09:39:33;;;;;;;4.15;2.72;;;;;;;28.15;40.67;99218.09;5225016;28;20106;-72
2022/06/06 09:42:37;;;;;;;4.20;2.78;;;;;;;29.03;44.32;99207.91;5225285;28;20581;-72
2022/06/06 09:45:54;;;;;;;4.38;2.58;;;;;;;28.08;42.65;99212.81;5210341;28;20053;-73
2022/06/06 09:49:16;;;;;;;4.93;2.65;;;;;;;28.13;39.96;99203.88;5226183;28;20658;-72
2022/06/06 09:52:32;;;;;;;2.83;2.20;;;;;;;28.64;40.99;99198.19;5207290;28;20060;-73
2022/06/06 09:59:03;;;;;;;3.80;2.70;;;;;;;27.80;42.57;99202.88;5224893;28;20049;-73
2022/06/06 10:02:23;;;;;;;6.95;2.40;;;;;;;26.99;41.09;99199.69;5225137;28;20114;-72
2022/06/06 10:05:44;;;;;;;6.93;2.45;;;;;;;26.17;43.45;99200.00;5225579;28;20520;-73
2022/06/06 10:09:09;;;;;;;6.18;2.63;;;;;;;28.08;44.43;99190.19;5185409;28;20045;-73
2022/06/06 10:12:24;;;;;;;2.75;2.00;;;;;;;28.25;41.29;99185.50;5204862;28;20057;-70
2022/06/06 10:15:22;;;;;;;3.90;2.08;;;;;;;28.66;38.97;99180.50;5224400;28;20134;-70
2022/06/06 10:18:37;;;;;;;1.60;1.40;;;;;;;28.89;39.83;99173.91;5204063;28;20053;-70
2022/06/06 10:21:47;;;;;;;2.95;1.70;;;;;;;28.41;39.22;99177.50;5219738;28;20605;-70
2022/06/06 10:24:59;;;;;;;5.88;1.75;;;;;;;25.93;40.39;99163.91;5216142;28;20052;-70
2022/06/06 10:28:14;;;;;;;2.72;1.80;;;;;;;26.07;41.88;99175.34;5216624;28;20049;-71
2022/06/06 10:31:17;;;;;;;3.95;2.25;;;;;;;25.53;41.92;99172.78;5219376;28;20070;-70
2022/06/06 10:34:20;;;;;;;6.47;2.20;;;;;;;25.02;44.13;99179.66;5220262;28;20060;-70
2022/06/06 10:37:34;;;;;;;8.77;5.85;;;;;;;24.91;45.42;99177.75;5218677;28;20045;-71
2022/06/06 10:40:52;;;;;;;4.70;2.22;;;;;;;24.55;47.17;99187.69;5219943;28;20052;-71
2022/06/06 10:44:20;;;;;;;5.78;2.47;;;;;;;24.56;46.44;99186.59;5224640;28;20045;-71
2022/06/06 10:47:22;;;;;;;4.00;2.60;;;;;;;24.76;47.50;99184.44;5208247;28;20049;-71
2022/06/06 10:50:17;;;;;;;4.00;2.17;;;;;;;25.16;46.90;99170.28;5218351;28;20106;-71
2022/06/06 10:53:28;;;;;;;4.93;2.20;;;;;;;24.97;45.25;99176.84;5221050;28;20064;-71
2022/06/06 10:56:27;;;;;;;4.60;2.40;;;;;;;25.88;43.62;99159.19;5220273;28;20060;-72
2022/06/06 10:59:37;;;;;;;3.40;1.98;;;;;;;26.25;44.09;99159.66;5204362;28;20056;-71
2022/06/06 11:02:43;;;;;;;4.32;2.30;;;;;;;25.74;45.27;99155.88;5216720;28;20326;-72
2022/06/06 11:06:05;;;;;;;4.93;2.20;;;;;;;26.92;47.27;99155.44;5220350;28;20056;-73
2022/06/06 11:09:30;;;;;;;3.15;2.20;;;;;;;27.54;43.41;99147.19;5215934;28;20051;-73
2022/06/06 11:12:27;;;;;;;3.15;2.00;;;;;;;26.49;45.39;99146.03;5223607;28;20136;-73
2022/06/06 11:15:17;;;;;;;3.42;2.20;;;;;;;26.28;45.36;99139.31;5223247;28;20877;-72
2022/06/06 11:18:27;;;;;;;3.22;2.10;;;;;;;26.34;44.11;99140.25;5223207;28;20674;-72
2022/06/06 11:21:19;;;;;;;3.17;2.10;;;;;;;26.42;43.06;99135.25;5223291;28;20068;-73
2022/06/06 11:24:35;;;;;;;2.53;1.90;;;;;;;27.02;42.87;99114.81;5223599;28;20553;-72
2022/06/06 11:27:25;;;;;;;8.35;2.10;;;;;;;27.09;40.84;99131.00;5207600;28;20166;-72
2022/06/06 11:30:22;;;;;;;4.22;2.00;;;;;;;27.08;41.54;99116.53;5211132;28;20142;-71
2022/06/06 11:33:35;;;;;;;3.42;1.90;;;;;;;27.10;41.82;99135.34;5221893;28;20083;-71
2022/06/06 11:36:55;;;;;;;37.67;2.42;;;;;;;27.78;44.14;99122.47;5218590;28;20194;-72
2022/06/06 11:39:45;;;;;;;3.10;1.70;;;;;;;27.64;39.44;99111.91;5205383;28;20048;-73
2022/06/06 11:43:03;;;;;;;4.38;1.60;;;;;;;27.32;41.59;99119.94;5214941;28;20049;-72
2022/06/06 11:46:15;;;;;;;2.95;1.90;;;;;;;27.11;43.18;99116.03;5221161;28;20063;-73
2022/06/06 11:49:15;;;;;;;2.10;1.77;;;;;;;27.39;40.46;99114.31;5214574;28;20134;-73
2022/06/06 11:52:18;;;;;;;5.05;1.65;;;;;;;27.02;41.26;99109.38;5213991;28;20491;-73
2022/06/06 11:55:30;;;;;;;4.10;1.90;;;;;;;26.90;40.27;99112.19;5222194;28;20071;-74
2022/06/06 11:58:45;;;;;;;2.17;1.27;;;;;;;26.69;36.56;99111.03;5220535;28;20055;-72
2022/06/06 12:02:05;;;;;;;1.23;1.08;;;;;;;27.03;35.72;99110.19;5205532;28;20120;-74
2022/06/06 12:05:27;;;;;;;3.17;1.40;;;;;;;26.98;39.11;99108.22;5213062;28;20073;-73
2022/06/06 12:08:44;;;;;;;3.22;1.60;;;;;;;26.83;40.47;99102.53;5221217;28;20126;-71
2022/06/06 12:12:05;;;;;;;3.17;1.75;;;;;;;25.20;41.44;99111.78;5221667;28;20055;-72
2022/06/06 12:14:59;;;;;;;6.60;1.90;;;;;;;25.41;43.77;99113.06;5220840;28;20060;-71
2022/06/06 12:18:14;;;;;;;4.45;1.70;;;;;;;25.20;43.09;99109.06;5219115;28;20558;-72
2022/06/06 12:21:29;;;;;;;2.95;1.65;;;;;;;24.72;43.29;99107.31;5205943;28;20087;-73
2022/06/06 12:24:57;;;;;;;2.85;1.67;;;;;;;24.20;44.03;99112.44;5221588;28;20064;-73
2022/06/06 12:27:50;;;;;;;4.18;1.90;;;;;;;24.04;44.58;99116.63;5219324;28;20206;-73
2022/06/06 12:31:03;;;;;;;2.70;1.52;;;;;;;23.99;44.71;99112.94;5219960;28;20131;-72
2022/06/06 12:34:16;;;;;;;3.00;1.77;;;;;;;24.24;45.67;99110.09;5200123;28;20052;-72
2022/06/06 12:37:15;;;;;;;1.98;1.77;;;;;;;24.81;44.60;99096.97;5219104;28;20056;-72
2022/06/06 12:40:22;;;;;;;3.28;1.83;;;;;;;25.36;44.47;99091.22;5219151;28;20111;-71
2022/06/06 12:43:18;;;;;;;1.77;1.65;;;;;;;25.17;43.33;99098.69;5220071;28;20511;-70
2022/06/06 12:46:21;;;;;;;3.10;1.60;;;;;;;25.97;42.33;99089.81;5206490;28;20053;-71
2022/06/06 12:49:23;;;;;;;2.67;1.67;;;;;;;26.28;42.86;99100.44;5216660;28;20576;-71
2022/06/06 12:52:38;;;;;;;1.83;1.40;;;;;;;26.01;41.64;99084.72;5223826;28;20084;-72
2022/06/06 12:55:36;;;;;;;3.38;1.40;;;;;;;25.72;41.90;99087.38;5226294;28;20045;-71
2022/06/06 12:58:39;;;;;;;4.88;1.40;;;;;;;25.36;42.64;99091.22;5218409;28;20542;-72
2022/06/06 13:01:37;;;;;;;2.63;1.50;;;;;;;25.11;42.66;99094.16;5207382;28;20048;-71
2022/06/06 13:04:39;;;;;;;1.70;1.60;;;;;;;24.94;41.67;99082.38;5225222;28;20064;-71
2022/06/06 13:07:53;;;;;;;2.38;1.50;;;;;;;24.45;42.50;99090.66;5196336;28;20056;-71
2022/06/06 13:11:08;;;;;;;4.32;1.77;;;;;;;24.63;45.09;99084.31;5225917;28;20051;-71
2022/06/06 13:14:05;;;;;;;;;;;;;;;24.31;44.84;99083.75;5223053;28;20060;-71
2022/06/06 13:17:01;;;;;;;5.97;2.15;;;;;;;24.21;44.02;99087.00;5219544;28;20034;-71
2022/06/06 13:20:04;;;;;;;5.88;1.98;;;;;;;24.47;44.04;99091.25;5184361;28;20104;-72
2022/06/06 13:23:21;;;;;;;1.85;1.70;;;;;;;23.95;44.52;99093.63;5221695;28;20063;-70
2022/06/06 13:26:15;;;;;;;2.92;1.55;;;;;;;24.43;42.76;99103.59;5221986;28;20057;-71
2022/06/06 13:29:05;;;;;;;2.90;1.88;;;;;;;24.25;42.50;99095.50;5222552;28;20041;-68
2022/06/06 13:32:08;;;;;;;4.55;1.75;;;;;;;23.97;42.93;99094.19;5202617;28;20049;-70
2022/06/06 13:35:22;;;;;;;4.65;1.60;;;;;;;23.36;45.45;99090.50;5209231;28;20408;-71
2022/06/06 13:38:34;;;;;;;5.57;2.17;;;;;;;23.27;43.77;99094.56;5204275;28;20053;-70
2022/06/06 13:41:41;;;;;;;7.10;1.77;;;;;;;23.65;43.13;99098.94;5224712;28;20056;-70
2022/06/06 13:44:44;;;;;;;4.75;1.48;;;;;;;23.91;42.90;99092.44;5225518;28;20078;-68
2022/06/06 13:48:05;;;;;;;2.30;1.52;;;;;;;23.76;44.29;99092.81;5210668;28;20071;-70
2022/06/06 13:51:01;;;;;;;11.70;1.98;;;;;;;23.86;44.06;99089.56;5205880;28;20095;-70
2022/06/06 13:53:58;;;;;;;4.05;2.13;;;;;;;23.65;46.28;99085.41;5201087;28;20053;-69
2022/06/06 13:57:04;;;;;;;2.03;1.58;;;;;;;24.11;45.67;99067.78;5222220;28;20071;-69
2022/06/06 14:00:24;;;;;;;9.85;1.98;;;;;;;24.09;44.50;99078.81;5205808;28;20048;-69
2022/06/06 14:03:45;;;;;;;4.65;1.63;;;;;;;23.64;44.15;99076.47;5220899;28;20526;-70
2022/06/06 14:06:49;;;;;;;4.20;1.60;;;;;;;24.21;43.02;99080.78;5224841;28;20053;-68
2022/06/06 14:09:44;;;;;;;1.70;1.60;;;;;;;24.07;42.28;99082.81;5222995;28;20051;-69
2022/06/06 14:12:46;;;;;;;2.70;1.63;;;;;;;23.89;43.69;99079.09;5218687;28;20049;-69
2022/06/06 14:15:44;;;;;;;3.35;1.63;;;;;;;23.41;42.14;99060.91;5214866;28;20058;-70
2022/06/06 14:18:36;;;;;;;2.03;1.35;;;;;;;23.84;43.33;99081.69;5221111;28;20537;-70
2022/06/06 14:21:35;;;;;;;5.72;1.98;;;;;;;24.07;42.68;99064.72;5222820;28;20095;-71
2022/06/06 14:24:28;;;;;;;2.25;1.55;;;;;;;24.16;42.44;99070.59;5222410;28;20143;-68
2022/06/06 14:27:20;;;;;;;2.80;1.38;;;;;;;24.11;42.99;99071.31;5221151;28;20486;-72
2022/06/06 14:30:26;;;;;;;3.53;1.40;;;;;;;23.71;41.55;99072.88;5204523;28;20072;-69
2022/06/06 14:33:32;;;;;;;3.78;1.50;;;;;;;23.90;42.58;99071.78;5191495;28;20049;-69
2022/06/06 14:36:28;;;;;;;2.55;1.35;;;;;;;23.91;41.87;99070.75;5219298;28;20049;-70
2022/06/06 14:39:23;;;;;;;2.58;1.40;;;;;;;23.88;42.21;99071.22;5225336;28;20181;-70
2022/06/06 14:42:16;;;;;;;2.20;1.40;;;;;;;23.86;41.49;99074.13;5221073;28;20056;-70
2022/06/06 14:45:15;;;;;;;1.98;1.15;;;;;;;24.22;43.13;99069.69;5221475;28;20507;-70